sensor_id;sensor_type;location;lat;lon;timestamp;P1;durP1;ratioP1;P2;durP2;ratioP2
17251;SDS011;8742;51.716;8.790;2022-10-17T00:01:01;7.73;;;4.73;;
17251;SDS011;8742;51.716;8.790;2022-10-17T00:03:29;5.73;;;4.03;;
17251;SDS011;8742;51.716;8.790;2022-10-17T00:05:55;9.00;;;4.90;;
17251;SDS011;8742;51.716;8.790;2022-10-17T00:08:22;9.50;;;4.93;;
17251;SDS011;8742;51.716;8.790;2022-10-17T00:10:56;8.03;;;4.60;;
17251;SDS011;8742;51.716;8.790;2022-10-17T00:13:24;5.93;;;4.17;;
17251;SDS011;8742;51.716;8.790;2022-10-17T00:15:52;6.70;;;4.10;;
17251;SDS011;8742;51.716;8.790;2022-10-17T00:18:21;6.37;;;4.70;;
17251;SDS011;8742;51.716;8.790;2022-10-17T00:20:47;6.57;;;4.50;;
17251;SDS011;8742;51.716;8.790;2022-10-17T00:23:14;5.57;;;4.13;;
17251;SDS011;8742;51.716;8.790;2022-10-17T00:25:41;11.77;;;4.53;;
17251;SDS011;8742;51.716;8.790;2022-10-17T00:28:10;9.30;;;4.70;;
17251;SDS011;8742;51.716;8.790;2022-10-17T00:30:37;7.83;;;4.63;;
17251;SDS011;8742;51.716;8.790;2022-10-17T00:33:05;8.23;;;4.50;;
17251;SDS011;8742;51.716;8.790;2022-10-17T00:35:33;8.17;;;4.50;;
17251;SDS011;8742;51.716;8.790;2022-10-17T00:38:00;7.67;;;4.27;;
17251;SDS011;8742;51.716;8.790;2022-10-17T00:40:26;9.37;;;4.80;;
17251;SDS011;8742;51.716;8.790;2022-10-17T00:42:53;8.40;;;4.53;;
17251;SDS011;8742;51.716;8.790;2022-10-17T00:45:21;11.57;;;4.93;;
17251;SDS011;8742;51.716;8.790;2022-10-17T00:47:51;10.67;;;4.73;;
17251;SDS011;8742;51.716;8.790;2022-10-17T00:50:21;6.47;;;4.40;;
17251;SDS011;8742;51.716;8.790;2022-10-17T00:52:50;6.50;;;4.50;;
17251;SDS011;8742;51.716;8.790;2022-10-17T00:55:19;8.80;;;4.60;;
17251;SDS011;8742;51.716;8.790;2022-10-17T00:57:48;12.50;;;5.13;;
17251;SDS011;8742;51.716;8.790;2022-10-17T01:00:17;6.13;;;4.27;;
17251;SDS011;8742;51.716;8.790;2022-10-17T01:02:44;6.00;;;4.73;;
17251;SDS011;8742;51.716;8.790;2022-10-17T01:05:11;7.77;;;5.17;;
17251;SDS011;8742;51.716;8.790;2022-10-17T01:07:40;8.37;;;4.47;;
17251;SDS011;8742;51.716;8.790;2022-10-17T01:10:09;6.90;;;4.83;;
17251;SDS011;8742;51.716;8.790;2022-10-17T01:12:42;9.57;;;4.50;;
17251;SDS011;8742;51.716;8.790;2022-10-17T01:15:19;9.53;;;5.40;;
17251;SDS011;8742;51.716;8.790;2022-10-17T01:17:58;9.07;;;5.07;;
17251;SDS011;8742;51.716;8.790;2022-10-17T01:23:42;9.73;;;4.93;;
17251;SDS011;8742;51.716;8.790;2022-10-17T01:26:43;6.07;;;4.53;;
17251;SDS011;8742;51.716;8.790;2022-10-17T01:29:27;7.17;;;4.83;;
17251;SDS011;8742;51.716;8.790;2022-10-17T01:32:07;5.63;;;4.40;;
17251;SDS011;8742;51.716;8.790;2022-10-17T01:34:41;8.83;;;4.37;;
17251;SDS011;8742;51.716;8.790;2022-10-17T01:37:13;7.00;;;5.10;;
17251;SDS011;8742;51.716;8.790;2022-10-17T01:39:47;9.50;;;4.97;;
17251;SDS011;8742;51.716;8.790;2022-10-17T01:42:16;6.47;;;4.70;;
17251;SDS011;8742;51.716;8.790;2022-10-17T01:44:48;6.90;;;5.00;;
17251;SDS011;8742;51.716;8.790;2022-10-17T01:47:22;11.73;;;4.87;;
17251;SDS011;8742;51.716;8.790;2022-10-17T01:49:51;7.67;;;5.03;;
17251;SDS011;8742;51.716;8.790;2022-10-17T01:52:21;7.23;;;4.70;;
17251;SDS011;8742;51.716;8.790;2022-10-17T01:54:52;7.67;;;4.70;;
17251;SDS011;8742;51.716;8.790;2022-10-17T01:57:24;6.53;;;4.50;;
17251;SDS011;8742;51.716;8.790;2022-10-17T01:59:54;9.30;;;4.57;;
17251;SDS011;8742;51.716;8.790;2022-10-17T02:02:23;5.70;;;4.40;;
17251;SDS011;8742;51.716;8.790;2022-10-17T02:04:51;7.10;;;4.23;;
17251;SDS011;8742;51.716;8.790;2022-10-17T02:07:20;6.53;;;4.23;;
17251;SDS011;8742;51.716;8.790;2022-10-17T02:09:47;8.40;;;4.60;;
17251;SDS011;8742;51.716;8.790;2022-10-17T02:12:29;5.63;;;4.10;;
17251;SDS011;8742;51.716;8.790;2022-10-17T02:15:07;6.87;;;3.83;;
17251;SDS011;8742;51.716;8.790;2022-10-17T02:17:47;5.27;;;3.80;;
17251;SDS011;8742;51.716;8.790;2022-10-17T02:20:23;7.60;;;4.27;;
17251;SDS011;8742;51.716;8.790;2022-10-17T02:22:55;6.73;;;4.60;;
17251;SDS011;8742;51.716;8.790;2022-10-17T02:25:28;5.77;;;3.60;;
17251;SDS011;8742;51.716;8.790;2022-10-17T02:28:04;8.10;;;3.77;;
17251;SDS011;8742;51.716;8.790;2022-10-17T02:30:41;4.97;;;3.90;;
17251;SDS011;8742;51.716;8.790;2022-10-17T02:33:15;8.80;;;4.13;;
17251;SDS011;8742;51.716;8.790;2022-10-17T02:35:46;6.63;;;4.23;;
17251;SDS011;8742;51.716;8.790;2022-10-17T02:38:14;5.07;;;3.57;;
17251;SDS011;8742;51.716;8.790;2022-10-17T02:40:43;7.20;;;4.20;;
17251;SDS011;8742;51.716;8.790;2022-10-17T02:43:11;6.93;;;4.00;;
17251;SDS011;8742;51.716;8.790;2022-10-17T02:45:39;7.53;;;3.87;;
17251;SDS011;8742;51.716;8.790;2022-10-17T02:48:07;4.70;;;3.70;;
17251;SDS011;8742;51.716;8.790;2022-10-17T02:50:44;5.30;;;3.23;;
17251;SDS011;8742;51.716;8.790;2022-10-17T02:53:22;7.03;;;3.70;;
17251;SDS011;8742;51.716;8.790;2022-10-17T02:55:55;6.87;;;3.57;;
17251;SDS011;8742;51.716;8.790;2022-10-17T02:58:26;5.50;;;3.80;;
17251;SDS011;8742;51.716;8.790;2022-10-17T03:00:56;6.60;;;4.10;;
17251;SDS011;8742;51.716;8.790;2022-10-17T03:03:24;6.10;;;4.07;;
17251;SDS011;8742;51.716;8.790;2022-10-17T03:05:54;9.23;;;3.80;;
17251;SDS011;8742;51.716;8.790;2022-10-17T03:08:22;5.57;;;3.87;;
17251;SDS011;8742;51.716;8.790;2022-10-17T03:10:49;5.40;;;3.63;;
17251;SDS011;8742;51.716;8.790;2022-10-17T03:13:16;7.97;;;3.70;;
17251;SDS011;8742;51.716;8.790;2022-10-17T03:15:43;4.97;;;3.63;;
17251;SDS011;8742;51.716;8.790;2022-10-17T03:18:10;7.83;;;4.40;;
17251;SDS011;8742;51.716;8.790;2022-10-17T03:20:37;6.83;;;3.87;;
17251;SDS011;8742;51.716;8.790;2022-10-17T03:23:05;4.90;;;3.83;;
17251;SDS011;8742;51.716;8.790;2022-10-17T03:25:32;7.13;;;4.37;;
17251;SDS011;8742;51.716;8.790;2022-10-17T03:27:59;5.40;;;3.67;;
17251;SDS011;8742;51.716;8.790;2022-10-17T03:30:26;12.30;;;3.47;;
17251;SDS011;8742;51.716;8.790;2022-10-17T03:32:53;7.40;;;3.67;;
17251;SDS011;8742;51.716;8.790;2022-10-17T03:35:20;5.60;;;3.83;;
17251;SDS011;8742;51.716;8.790;2022-10-17T03:37:47;13.90;;;3.67;;
17251;SDS011;8742;51.716;8.790;2022-10-17T03:40:15;5.83;;;3.60;;
17251;SDS011;8742;51.716;8.790;2022-10-17T03:42:42;5.70;;;3.50;;
17251;SDS011;8742;51.716;8.790;2022-10-17T03:45:09;5.40;;;3.10;;
17251;SDS011;8742;51.716;8.790;2022-10-17T03:47:36;5.97;;;3.80;;
17251;SDS011;8742;51.716;8.790;2022-10-17T03:50:03;4.77;;;3.33;;
17251;SDS011;8742;51.716;8.790;2022-10-17T03:52:31;5.37;;;3.37;;
17251;SDS011;8742;51.716;8.790;2022-10-17T03:54:58;7.03;;;4.10;;
17251;SDS011;8742;51.716;8.790;2022-10-17T03:57:26;3.93;;;3.40;;
17251;SDS011;8742;51.716;8.790;2022-10-17T03:59:53;4.37;;;3.40;;
17251;SDS011;8742;51.716;8.790;2022-10-17T04:02:20;5.37;;;3.67;;
17251;SDS011;8742;51.716;8.790;2022-10-17T04:04:47;10.83;;;3.53;;
17251;SDS011;8742;51.716;8.790;2022-10-17T04:07:13;4.77;;;3.30;;
17251;SDS011;8742;51.716;8.790;2022-10-17T04:09:40;6.80;;;3.30;;
17251;SDS011;8742;51.716;8.790;2022-10-17T04:12:07;15.10;;;3.83;;
17251;SDS011;8742;51.716;8.790;2022-10-17T04:14:36;9.60;;;3.67;;
17251;SDS011;8742;51.716;8.790;2022-10-17T04:17:03;5.87;;;3.57;;
17251;SDS011;8742;51.716;8.790;2022-10-17T04:19:30;5.77;;;3.40;;
17251;SDS011;8742;51.716;8.790;2022-10-17T04:21:57;7.63;;;3.67;;
17251;SDS011;8742;51.716;8.790;2022-10-17T04:24:24;5.03;;;3.43;;
17251;SDS011;8742;51.716;8.790;2022-10-17T04:26:51;9.93;;;3.40;;
17251;SDS011;8742;51.716;8.790;2022-10-17T04:29:19;6.50;;;3.20;;
17251;SDS011;8742;51.716;8.790;2022-10-17T04:31:47;8.63;;;3.23;;
17251;SDS011;8742;51.716;8.790;2022-10-17T04:34:16;3.63;;;3.23;;
17251;SDS011;8742;51.716;8.790;2022-10-17T04:36:43;9.80;;;3.30;;
17251;SDS011;8742;51.716;8.790;2022-10-17T04:39:11;8.67;;;3.33;;
17251;SDS011;8742;51.716;8.790;2022-10-17T04:41:38;4.80;;;3.50;;
17251;SDS011;8742;51.716;8.790;2022-10-17T04:44:05;7.47;;;4.10;;
17251;SDS011;8742;51.716;8.790;2022-10-17T04:46:32;7.47;;;3.57;;
17251;SDS011;8742;51.716;8.790;2022-10-17T04:49:00;4.53;;;3.50;;
17251;SDS011;8742;51.716;8.790;2022-10-17T04:51:27;6.07;;;3.70;;
17251;SDS011;8742;51.716;8.790;2022-10-17T04:53:54;7.37;;;3.47;;
17251;SDS011;8742;51.716;8.790;2022-10-17T04:56:22;5.50;;;3.80;;
17251;SDS011;8742;51.716;8.790;2022-10-17T04:58:49;13.87;;;4.30;;
17251;SDS011;8742;51.716;8.790;2022-10-17T05:01:17;6.70;;;3.80;;
17251;SDS011;8742;51.716;8.790;2022-10-17T05:03:45;4.63;;;3.53;;
17251;SDS011;8742;51.716;8.790;2022-10-17T05:06:14;10.70;;;3.90;;
17251;SDS011;8742;51.716;8.790;2022-10-17T05:08:42;6.03;;;3.73;;
17251;SDS011;8742;51.716;8.790;2022-10-17T05:11:14;3.60;;;3.27;;
17251;SDS011;8742;51.716;8.790;2022-10-17T05:13:43;4.27;;;3.30;;
17251;SDS011;8742;51.716;8.790;2022-10-17T05:16:10;7.33;;;3.67;;
17251;SDS011;8742;51.716;8.790;2022-10-17T05:18:37;7.27;;;3.60;;
17251;SDS011;8742;51.716;8.790;2022-10-17T05:21:04;6.90;;;3.70;;
17251;SDS011;8742;51.716;8.790;2022-10-17T05:23:32;4.97;;;3.40;;
17251;SDS011;8742;51.716;8.790;2022-10-17T05:25:59;7.10;;;3.63;;
17251;SDS011;8742;51.716;8.790;2022-10-17T05:28:26;6.87;;;3.60;;
17251;SDS011;8742;51.716;8.790;2022-10-17T05:30:53;4.93;;;3.57;;
17251;SDS011;8742;51.716;8.790;2022-10-17T05:33:21;8.10;;;3.87;;
17251;SDS011;8742;51.716;8.790;2022-10-17T05:35:48;8.37;;;3.57;;
17251;SDS011;8742;51.716;8.790;2022-10-17T05:38:15;6.07;;;3.63;;
17251;SDS011;8742;51.716;8.790;2022-10-17T05:40:43;6.13;;;3.43;;
17251;SDS011;8742;51.716;8.790;2022-10-17T05:43:10;4.00;;;3.60;;
17251;SDS011;8742;51.716;8.790;2022-10-17T05:45:37;6.03;;;3.67;;
17251;SDS011;8742;51.716;8.790;2022-10-17T05:48:03;7.50;;;3.70;;
17251;SDS011;8742;51.716;8.790;2022-10-17T05:50:31;6.57;;;3.10;;
17251;SDS011;8742;51.716;8.790;2022-10-17T05:52:57;8.33;;;3.77;;
17251;SDS011;8742;51.716;8.790;2022-10-17T05:55:24;4.83;;;3.20;;
17251;SDS011;8742;51.716;8.790;2022-10-17T05:57:53;4.53;;;2.90;;
17251;SDS011;8742;51.716;8.790;2022-10-17T06:00:20;4.27;;;3.50;;
17251;SDS011;8742;51.716;8.790;2022-10-17T06:02:47;12.03;;;3.87;;
17251;SDS011;8742;51.716;8.790;2022-10-17T06:05:14;6.80;;;3.33;;
17251;SDS011;8742;51.716;8.790;2022-10-17T06:07:41;6.77;;;3.70;;
17251;SDS011;8742;51.716;8.790;2022-10-17T06:10:08;5.27;;;3.53;;
17251;SDS011;8742;51.716;8.790;2022-10-17T06:12:37;7.60;;;3.87;;
17251;SDS011;8742;51.716;8.790;2022-10-17T06:15:05;7.53;;;3.57;;
17251;SDS011;8742;51.716;8.790;2022-10-17T06:17:33;5.70;;;3.60;;
17251;SDS011;8742;51.716;8.790;2022-10-17T06:20:00;5.20;;;3.70;;
17251;SDS011;8742;51.716;8.790;2022-10-17T06:22:27;18.87;;;4.13;;
17251;SDS011;8742;51.716;8.790;2022-10-17T06:24:54;6.30;;;3.77;;
17251;SDS011;8742;51.716;8.790;2022-10-17T06:27:21;5.77;;;3.63;;
17251;SDS011;8742;51.716;8.790;2022-10-17T06:29:47;3.83;;;3.40;;
17251;SDS011;8742;51.716;8.790;2022-10-17T06:32:16;6.83;;;3.70;;
17251;SDS011;8742;51.716;8.790;2022-10-17T06:34:43;10.90;;;4.10;;
17251;SDS011;8742;51.716;8.790;2022-10-17T06:37:10;4.13;;;3.43;;
17251;SDS011;8742;51.716;8.790;2022-10-17T06:39:37;8.23;;;4.10;;
17251;SDS011;8742;51.716;8.790;2022-10-17T06:42:04;4.97;;;3.77;;
17251;SDS011;8742;51.716;8.790;2022-10-17T06:44:31;5.57;;;3.60;;
17251;SDS011;8742;51.716;8.790;2022-10-17T06:46:58;6.93;;;3.60;;
17251;SDS011;8742;51.716;8.790;2022-10-17T06:49:27;6.67;;;3.63;;
17251;SDS011;8742;51.716;8.790;2022-10-17T06:51:53;5.80;;;3.40;;
17251;SDS011;8742;51.716;8.790;2022-10-17T06:54:20;4.30;;;3.20;;
17251;SDS011;8742;51.716;8.790;2022-10-17T06:56:47;4.60;;;3.27;;
17251;SDS011;8742;51.716;8.790;2022-10-17T06:59:14;7.47;;;3.70;;
17251;SDS011;8742;51.716;8.790;2022-10-17T07:01:41;6.13;;;3.50;;
17251;SDS011;8742;51.716;8.790;2022-10-17T07:04:08;4.30;;;3.43;;
17251;SDS011;8742;51.716;8.790;2022-10-17T07:06:36;6.17;;;3.00;;
17251;SDS011;8742;51.716;8.790;2022-10-17T07:09:03;5.33;;;3.43;;
17251;SDS011;8742;51.716;8.790;2022-10-17T07:11:31;5.00;;;3.03;;
17251;SDS011;8742;51.716;8.790;2022-10-17T07:13:59;5.07;;;3.00;;
17251;SDS011;8742;51.716;8.790;2022-10-17T07:16:26;5.30;;;2.77;;
17251;SDS011;8742;51.716;8.790;2022-10-17T07:18:54;6.33;;;3.20;;
17251;SDS011;8742;51.716;8.790;2022-10-17T07:21:21;10.60;;;3.40;;
17251;SDS011;8742;51.716;8.790;2022-10-17T07:23:49;4.47;;;2.93;;
17251;SDS011;8742;51.716;8.790;2022-10-17T07:26:17;3.00;;;2.80;;
17251;SDS011;8742;51.716;8.790;2022-10-17T07:28:45;4.73;;;2.80;;
17251;SDS011;8742;51.716;8.790;2022-10-17T07:31:17;3.53;;;3.07;;
17251;SDS011;8742;51.716;8.790;2022-10-17T07:33:45;5.87;;;3.23;;
17251;SDS011;8742;51.716;8.790;2022-10-17T07:36:12;5.70;;;3.10;;
17251;SDS011;8742;51.716;8.790;2022-10-17T07:38:39;5.10;;;3.13;;
17251;SDS011;8742;51.716;8.790;2022-10-17T07:41:09;8.43;;;3.00;;
17251;SDS011;8742;51.716;8.790;2022-10-17T07:43:36;8.63;;;2.90;;
17251;SDS011;8742;51.716;8.790;2022-10-17T07:46:05;3.77;;;2.97;;
17251;SDS011;8742;51.716;8.790;2022-10-17T07:48:32;3.63;;;3.00;;
17251;SDS011;8742;51.716;8.790;2022-10-17T07:51:00;6.07;;;2.97;;
17251;SDS011;8742;51.716;8.790;2022-10-17T07:53:28;3.70;;;2.83;;
17251;SDS011;8742;51.716;8.790;2022-10-17T07:55:55;7.93;;;3.23;;
17251;SDS011;8742;51.716;8.790;2022-10-17T07:58:23;7.53;;;3.03;;
17251;SDS011;8742;51.716;8.790;2022-10-17T08:00:52;5.83;;;3.23;;
17251;SDS011;8742;51.716;8.790;2022-10-17T08:03:19;4.00;;;2.53;;
17251;SDS011;8742;51.716;8.790;2022-10-17T08:05:46;8.87;;;2.77;;
17251;SDS011;8742;51.716;8.790;2022-10-17T08:08:13;5.37;;;3.10;;
17251;SDS011;8742;51.716;8.790;2022-10-17T08:10:40;5.83;;;2.90;;
17251;SDS011;8742;51.716;8.790;2022-10-17T08:13:06;3.00;;;2.70;;
17251;SDS011;8742;51.716;8.790;2022-10-17T08:15:35;6.57;;;3.00;;
17251;SDS011;8742;51.716;8.790;2022-10-17T08:18:03;5.90;;;3.07;;
17251;SDS011;8742;51.716;8.790;2022-10-17T08:20:48;5.43;;;3.00;;
17251;SDS011;8742;51.716;8.790;2022-10-17T08:23:15;7.87;;;2.93;;
17251;SDS011;8742;51.716;8.790;2022-10-17T08:25:42;13.57;;;2.73;;
17251;SDS011;8742;51.716;8.790;2022-10-17T08:28:08;4.30;;;2.77;;
17251;SDS011;8742;51.716;8.790;2022-10-17T08:30:37;6.47;;;2.80;;
17251;SDS011;8742;51.716;8.790;2022-10-17T08:33:03;8.47;;;2.97;;
17251;SDS011;8742;51.716;8.790;2022-10-17T08:35:30;7.23;;;2.63;;
17251;SDS011;8742;51.716;8.790;2022-10-17T08:37:57;3.63;;;2.63;;
17251;SDS011;8742;51.716;8.790;2022-10-17T08:40:26;10.33;;;3.13;;
17251;SDS011;8742;51.716;8.790;2022-10-17T08:43:08;8.57;;;3.00;;
17251;SDS011;8742;51.716;8.790;2022-10-17T08:45:55;6.83;;;2.80;;
17251;SDS011;8742;51.716;8.790;2022-10-17T08:48:27;2.97;;;2.53;;
17251;SDS011;8742;51.716;8.790;2022-10-17T08:50:58;5.57;;;2.60;;
17251;SDS011;8742;51.716;8.790;2022-10-17T08:53:37;10.13;;;3.10;;
17251;SDS011;8742;51.716;8.790;2022-10-17T08:56:12;4.60;;;2.73;;
17251;SDS011;8742;51.716;8.790;2022-10-17T08:58:44;2.90;;;2.57;;
17251;SDS011;8742;51.716;8.790;2022-10-17T09:01:16;11.43;;;2.73;;
17251;SDS011;8742;51.716;8.790;2022-10-17T09:04:02;6.27;;;2.90;;
17251;SDS011;8742;51.716;8.790;2022-10-17T09:06:42;5.43;;;3.20;;
17251;SDS011;8742;51.716;8.790;2022-10-17T09:09:23;5.57;;;2.90;;
17251;SDS011;8742;51.716;8.790;2022-10-17T09:12:01;6.07;;;2.87;;
17251;SDS011;8742;51.716;8.790;2022-10-17T09:14:48;6.03;;;2.90;;
17251;SDS011;8742;51.716;8.790;2022-10-17T09:17:31;5.37;;;2.80;;
17251;SDS011;8742;51.716;8.790;2022-10-17T09:20:04;8.37;;;3.23;;
17251;SDS011;8742;51.716;8.790;2022-10-17T09:22:36;5.83;;;3.20;;
17251;SDS011;8742;51.716;8.790;2022-10-17T09:25:09;7.37;;;2.80;;
17251;SDS011;8742;51.716;8.790;2022-10-17T09:27:39;15.60;;;3.37;;
17251;SDS011;8742;51.716;8.790;2022-10-17T09:30:27;4.23;;;2.77;;
17251;SDS011;8742;51.716;8.790;2022-10-17T09:33:01;12.67;;;3.03;;
17251;SDS011;8742;51.716;8.790;2022-10-17T09:35:37;4.60;;;3.13;;
17251;SDS011;8742;51.716;8.790;2022-10-17T09:38:06;8.50;;;2.70;;
17251;SDS011;8742;51.716;8.790;2022-10-17T09:40:40;7.10;;;2.90;;
17251;SDS011;8742;51.716;8.790;2022-10-17T09:43:07;5.57;;;3.03;;
17251;SDS011;8742;51.716;8.790;2022-10-17T09:45:39;4.00;;;2.87;;
17251;SDS011;8742;51.716;8.790;2022-10-17T09:48:17;6.20;;;2.70;;
17251;SDS011;8742;51.716;8.790;2022-10-17T09:50:49;6.23;;;2.87;;
17251;SDS011;8742;51.716;8.790;2022-10-17T09:53:17;8.80;;;2.90;;
17251;SDS011;8742;51.716;8.790;2022-10-17T09:55:49;6.30;;;2.37;;
17251;SDS011;8742;51.716;8.790;2022-10-17T09:58:20;4.72;;;2.95;;
17251;SDS011;8742;51.716;8.790;2022-10-17T10:00:48;5.78;;;2.90;;
17251;SDS011;8742;51.716;8.790;2022-10-17T10:03:17;6.88;;;2.83;;
17251;SDS011;8742;51.716;8.790;2022-10-17T10:05:58;4.03;;;2.67;;
17251;SDS011;8742;51.716;8.790;2022-10-17T10:08:28;6.00;;;2.58;;
17251;SDS011;8742;51.716;8.790;2022-10-17T10:10:57;6.72;;;2.45;;
17251;SDS011;8742;51.716;8.790;2022-10-17T10:13:27;11.05;;;2.80;;
17251;SDS011;8742;51.716;8.790;2022-10-17T10:15:54;6.65;;;2.58;;
17251;SDS011;8742;51.716;8.790;2022-10-17T10:18:41;5.25;;;2.85;;
17251;SDS011;8742;51.716;8.790;2022-10-17T10:21:10;3.47;;;2.67;;
17251;SDS011;8742;51.716;8.790;2022-10-17T10:23:38;4.07;;;2.45;;
17251;SDS011;8742;51.716;8.790;2022-10-17T10:26:16;4.47;;;2.75;;
17251;SDS011;8742;51.716;8.790;2022-10-17T10:28:51;6.05;;;2.55;;
17251;SDS011;8742;51.716;8.790;2022-10-17T10:31:24;4.57;;;2.47;;
17251;SDS011;8742;51.716;8.790;2022-10-17T10:34:16;4.97;;;2.80;;
17251;SDS011;8742;51.716;8.790;2022-10-17T10:36:48;9.80;;;2.35;;
17251;SDS011;8742;51.716;8.790;2022-10-17T10:42:07;5.65;;;2.72;;
17251;SDS011;8742;51.716;8.790;2022-10-17T10:44:45;4.45;;;2.05;;
17251;SDS011;8742;51.716;8.790;2022-10-17T10:47:17;5.78;;;2.30;;
17251;SDS011;8742;51.716;8.790;2022-10-17T10:49:50;4.00;;;2.40;;
17251;SDS011;8742;51.716;8.790;2022-10-17T10:52:26;10.88;;;2.53;;
17251;SDS011;8742;51.716;8.790;2022-10-17T10:54:59;6.63;;;2.67;;
17251;SDS011;8742;51.716;8.790;2022-10-17T10:57:32;5.38;;;2.35;;
17251;SDS011;8742;51.716;8.790;2022-10-17T11:00:03;9.20;;;2.75;;
17251;SDS011;8742;51.716;8.790;2022-10-17T11:02:42;5.28;;;2.30;;
17251;SDS011;8742;51.716;8.790;2022-10-17T11:05:19;3.38;;;2.28;;
17251;SDS011;8742;51.716;8.790;2022-10-17T11:07:54;3.40;;;2.10;;
17251;SDS011;8742;51.716;8.790;2022-10-17T11:10:29;7.53;;;2.60;;
17251;SDS011;8742;51.716;8.790;2022-10-17T11:13:03;5.85;;;2.63;;
17251;SDS011;8742;51.716;8.790;2022-10-17T11:15:35;4.28;;;2.42;;
17251;SDS011;8742;51.716;8.790;2022-10-17T11:18:10;13.82;;;2.38;;
17251;SDS011;8742;51.716;8.790;2022-10-17T11:20:49;3.08;;;2.13;;
17251;SDS011;8742;51.716;8.790;2022-10-17T11:23:22;4.47;;;2.40;;
17251;SDS011;8742;51.716;8.790;2022-10-17T11:25:53;4.15;;;2.58;;
17251;SDS011;8742;51.716;8.790;2022-10-17T11:28:22;12.77;;;2.22;;
17251;SDS011;8742;51.716;8.790;2022-10-17T11:30:51;3.40;;;2.25;;
17251;SDS011;8742;51.716;8.790;2022-10-17T11:33:24;3.83;;;2.13;;
17251;SDS011;8742;51.716;8.790;2022-10-17T11:35:56;4.35;;;2.22;;
17251;SDS011;8742;51.716;8.790;2022-10-17T11:38:32;5.97;;;2.50;;
17251;SDS011;8742;51.716;8.790;2022-10-17T11:41:05;5.90;;;2.60;;
17251;SDS011;8742;51.716;8.790;2022-10-17T11:43:39;10.52;;;2.67;;
17251;SDS011;8742;51.716;8.790;2022-10-17T11:46:11;5.03;;;2.45;;
17251;SDS011;8742;51.716;8.790;2022-10-17T11:48:44;10.40;;;3.08;;
17251;SDS011;8742;51.716;8.790;2022-10-17T11:51:19;10.00;;;2.85;;
17251;SDS011;8742;51.716;8.790;2022-10-17T11:53:47;5.90;;;2.83;;
17251;SDS011;8742;51.716;8.790;2022-10-17T11:56:21;14.15;;;2.70;;
17251;SDS011;8742;51.716;8.790;2022-10-17T11:58:56;7.50;;;2.80;;
17251;SDS011;8742;51.716;8.790;2022-10-17T12:01:34;9.30;;;2.72;;
17251;SDS011;8742;51.716;8.790;2022-10-17T12:04:15;4.93;;;2.30;;
17251;SDS011;8742;51.716;8.790;2022-10-17T12:06:51;11.25;;;2.50;;
17251;SDS011;8742;51.716;8.790;2022-10-17T12:09:30;6.38;;;2.60;;
17251;SDS011;8742;51.716;8.790;2022-10-17T12:12:04;4.65;;;2.63;;
17251;SDS011;8742;51.716;8.790;2022-10-17T12:14:41;6.05;;;2.08;;
17251;SDS011;8742;51.716;8.790;2022-10-17T12:23:16;6.90;;;2.42;;
17251;SDS011;8742;51.716;8.790;2022-10-17T12:25:51;6.20;;;2.50;;
17251;SDS011;8742;51.716;8.790;2022-10-17T12:28:26;4.47;;;2.40;;
17251;SDS011;8742;51.716;8.790;2022-10-17T12:30:57;4.72;;;2.50;;
17251;SDS011;8742;51.716;8.790;2022-10-17T12:33:30;9.20;;;3.00;;
17251;SDS011;8742;51.716;8.790;2022-10-17T12:44:57;8.50;;;2.72;;
17251;SDS011;8742;51.716;8.790;2022-10-17T12:47:34;10.27;;;2.67;;
17251;SDS011;8742;51.716;8.790;2022-10-17T12:50:10;5.97;;;2.93;;
17251;SDS011;8742;51.716;8.790;2022-10-17T12:53:16;7.30;;;2.47;;
17251;SDS011;8742;51.716;8.790;2022-10-17T12:55:47;6.17;;;2.50;;
17251;SDS011;8742;51.716;8.790;2022-10-17T12:58:15;9.80;;;2.80;;
17251;SDS011;8742;51.716;8.790;2022-10-17T13:00:43;13.27;;;3.37;;
17251;SDS011;8742;51.716;8.790;2022-10-17T13:03:16;8.77;;;3.20;;
17251;SDS011;8742;51.716;8.790;2022-10-17T13:05:47;7.93;;;2.77;;
17251;SDS011;8742;51.716;8.790;2022-10-17T13:08:18;8.17;;;3.00;;
17251;SDS011;8742;51.716;8.790;2022-10-17T13:10:48;4.77;;;2.97;;
17251;SDS011;8742;51.716;8.790;2022-10-17T13:13:18;5.10;;;2.67;;
17251;SDS011;8742;51.716;8.790;2022-10-17T13:15:46;6.60;;;2.70;;
17251;SDS011;8742;51.716;8.790;2022-10-17T13:18:19;10.73;;;3.07;;
17251;SDS011;8742;51.716;8.790;2022-10-17T13:20:53;6.70;;;2.97;;
17251;SDS011;8742;51.716;8.790;2022-10-17T13:23:28;5.73;;;3.00;;
17251;SDS011;8742;51.716;8.790;2022-10-17T13:26:03;7.10;;;2.97;;
17251;SDS011;8742;51.716;8.790;2022-10-17T13:28:32;6.53;;;3.00;;
17251;SDS011;8742;51.716;8.790;2022-10-17T13:30:59;8.10;;;2.70;;
17251;SDS011;8742;51.716;8.790;2022-10-17T13:33:31;10.83;;;3.00;;
17251;SDS011;8742;51.716;8.790;2022-10-17T13:36:03;7.10;;;3.13;;
17251;SDS011;8742;51.716;8.790;2022-10-17T13:38:34;7.13;;;2.93;;
17251;SDS011;8742;51.716;8.790;2022-10-17T13:41:01;8.37;;;2.87;;
17251;SDS011;8742;51.716;8.790;2022-10-17T13:43:29;5.87;;;2.70;;
17251;SDS011;8742;51.716;8.790;2022-10-17T13:45:59;6.93;;;3.20;;
17251;SDS011;8742;51.716;8.790;2022-10-17T13:48:30;9.10;;;2.93;;
17251;SDS011;8742;51.716;8.790;2022-10-17T13:50:59;7.07;;;3.57;;
17251;SDS011;8742;51.716;8.790;2022-10-17T13:53:29;6.13;;;2.90;;
17251;SDS011;8742;51.716;8.790;2022-10-17T13:56:00;11.50;;;2.90;;
17251;SDS011;8742;51.716;8.790;2022-10-17T13:58:30;11.17;;;2.80;;
17251;SDS011;8742;51.716;8.790;2022-10-17T14:00:59;9.50;;;3.23;;
17251;SDS011;8742;51.716;8.790;2022-10-17T14:03:26;8.37;;;3.47;;
17251;SDS011;8742;51.716;8.790;2022-10-17T14:06:07;11.43;;;3.10;;
17251;SDS011;8742;51.716;8.790;2022-10-17T14:08:45;8.03;;;3.00;;
17251;SDS011;8742;51.716;8.790;2022-10-17T14:11:19;8.90;;;3.43;;
17251;SDS011;8742;51.716;8.790;2022-10-17T14:13:50;5.70;;;3.07;;
17251;SDS011;8742;51.716;8.790;2022-10-17T14:16:18;4.70;;;2.77;;
17251;SDS011;8742;51.716;8.790;2022-10-17T14:18:47;6.30;;;2.97;;
17251;SDS011;8742;51.716;8.790;2022-10-17T14:21:22;6.47;;;2.93;;
17251;SDS011;8742;51.716;8.790;2022-10-17T14:24:10;12.53;;;2.90;;
17251;SDS011;8742;51.716;8.790;2022-10-17T14:26:47;7.17;;;3.10;;
17251;SDS011;8742;51.716;8.790;2022-10-17T14:29:20;7.27;;;2.80;;
17251;SDS011;8742;51.716;8.790;2022-10-17T14:31:49;7.90;;;2.80;;
17251;SDS011;8742;51.716;8.790;2022-10-17T14:34:23;7.07;;;2.78;;
17251;SDS011;8742;51.716;8.790;2022-10-17T14:36:53;6.38;;;2.80;;
17251;SDS011;8742;51.716;8.790;2022-10-17T14:39:22;9.60;;;2.90;;
17251;SDS011;8742;51.716;8.790;2022-10-17T14:41:51;5.18;;;2.60;;
17251;SDS011;8742;51.716;8.790;2022-10-17T14:44:20;6.93;;;3.20;;
17251;SDS011;8742;51.716;8.790;2022-10-17T14:46:51;7.35;;;2.78;;
17251;SDS011;8742;51.716;8.790;2022-10-17T14:49:26;8.27;;;3.30;;
17251;SDS011;8742;51.716;8.790;2022-10-17T14:54:50;3.50;;;2.65;;
17251;SDS011;8742;51.716;8.790;2022-10-17T14:57:21;8.10;;;2.80;;
17251;SDS011;8742;51.716;8.790;2022-10-17T14:59:50;11.73;;;3.17;;
17251;SDS011;8742;51.716;8.790;2022-10-17T15:02:17;10.27;;;3.07;;
17251;SDS011;8742;51.716;8.790;2022-10-17T15:04:44;5.55;;;3.05;;
17251;SDS011;8742;51.716;8.790;2022-10-17T15:07:12;6.97;;;3.00;;
17251;SDS011;8742;51.716;8.790;2022-10-17T15:09:40;9.50;;;2.80;;
17251;SDS011;8742;51.716;8.790;2022-10-17T15:12:10;6.63;;;2.93;;
17251;SDS011;8742;51.716;8.790;2022-10-17T15:14:41;8.60;;;3.40;;
17251;SDS011;8742;51.716;8.790;2022-10-17T15:17:10;9.43;;;3.27;;
17251;SDS011;8742;51.716;8.790;2022-10-17T15:19:39;7.10;;;3.00;;
17251;SDS011;8742;51.716;8.790;2022-10-17T15:22:06;9.23;;;3.50;;
17251;SDS011;8742;51.716;8.790;2022-10-17T15:24:33;7.83;;;3.13;;
17251;SDS011;8742;51.716;8.790;2022-10-17T15:27:00;11.00;;;3.70;;
17251;SDS011;8742;51.716;8.790;2022-10-17T15:29:26;6.37;;;3.20;;
17251;SDS011;8742;51.716;8.790;2022-10-17T15:31:55;7.37;;;3.37;;
17251;SDS011;8742;51.716;8.790;2022-10-17T15:34:21;7.53;;;3.43;;
17251;SDS011;8742;51.716;8.790;2022-10-17T15:36:49;9.43;;;3.37;;
17251;SDS011;8742;51.716;8.790;2022-10-17T15:39:17;12.00;;;3.60;;
17251;SDS011;8742;51.716;8.790;2022-10-17T15:41:44;7.83;;;3.43;;
17251;SDS011;8742;51.716;8.790;2022-10-17T15:44:13;14.73;;;3.60;;